Time;durP1;ratioP1;P1;durP2;ratioP2;P2;SDS_P1;SDS_P2;PMS_P1;PMS_P2;Temp;Humidity;BMP_temperature;BMP_pressure;BME280_temperature;BME280_humidity;BME280_pressure;Samples;Min_cycle;Max_cycle;Signal;HPM_P1;HPM_P2
2022/06/08 00:00:54;;;;;;;21.85;7.85;;;;;;;;;;5097632;28;20505;-64
2022/06/08 00:03:23;;;;;;;19.98;8.73;;;;;;;;;;5095428;28;20089;-64
2022/06/08 00:05:49;;;;;;;18.67;8.60;;;;;;;;;;5093132;28;20058;-64
2022/06/08 00:08:16;;;;;;;17.52;7.63;;;;;;;;;;5097069;28;20044;-64
2022/06/08 00:10:42;;;;;;;15.48;8.35;;;;;;;;;;5097119;28;20363;-63
2022/06/08 00:13:09;;;;;;;22.70;8.93;;;;;;;;;;5095890;28;20183;-64
2022/06/08 00:15:35;;;;;;;18.17;9.25;;;;;;;;;;5092548;28;20036;-63
2022/06/08 00:18:02;;;;;;;17.10;8.25;;;;;;;;;;5086899;28;20039;-65
2022/06/08 00:20:28;;;;;;;13.23;7.95;;;;;;;;;;5076263;28;20055;-64
2022/06/08 00:22:55;;;;;;;13.50;8.40;;;;;;;;;;5093775;28;20352;-64
2022/06/08 00:25:21;;;;;;;17.20;8.18;;;;;;;;;;5095685;28;20032;-64
2022/06/08 00:27:47;;;;;;;14.05;7.93;;;;;;;;;;5080477;28;20048;-64
2022/06/08 00:30:14;;;;;;;14.35;7.65;;;;;;;;;;5099524;28;20043;-64
2022/06/08 00:32:40;;;;;;;17.35;8.63;;;;;;;;;;5080061;28;20078;-64
2022/06/08 00:35:07;;;;;;;18.08;9.63;;;;;;;;;;5084353;28;20063;-63
2022/06/08 00:37:33;;;;;;;18.92;9.93;;;;;;;;;;5098861;28;20054;-64
2022/06/08 00:40:00;;;;;;;18.30;8.65;;;;;;;;;;5101244;28;20079;-63
2022/06/08 00:42:27;;;;;;;19.67;10.70;;;;;;;;;;5058505;28;20040;-64
2022/06/08 00:44:56;;;;;;;35.85;12.38;;;;;;;;;;5098096;28;20063;-64
2022/06/08 00:47:25;;;;;;;25.30;12.57;;;;;;;;;;5102640;28;20086;-64
2022/06/08 00:49:53;;;;;;;23.08;12.48;;;;;;;;;;5102934;28;20039;-64
2022/06/08 00:52:19;;;;;;;21.17;13.23;;;;;;;;;;5078461;28;20043;-64
2022/06/08 00:54:57;;;;;;;23.48;12.65;;;;;;;;;;5101026;28;20360;-64
2022/06/08 00:57:31;;;;;;;24.70;11.77;;;;;;;;;;5082894;28;20456;-64
2022/06/08 01:00:00;;;;;;;21.75;12.93;;;;;;;;;;5100945;28;20046;-64
2022/06/08 01:02:27;;;;;;;20.42;11.57;;;;;;;;;;5098563;28;20544;-64
2022/06/08 01:05:12;;;;;;;21.05;11.60;;;;;;;;;;5100160;28;20047;-64
2022/06/08 01:07:38;;;;;;;22.65;11.65;;;;;;;;;;5095595;28;20051;-64
2022/06/08 01:10:04;;;;;;;20.92;12.27;;;;;;;;;;5097522;28;20224;-63
2022/06/08 01:12:31;;;;;;;25.67;12.27;;;;;;;;;;5068942;28;20775;-64
2022/06/08 01:14:57;;;;;;;19.65;11.70;;;;;;;;;;5101560;28;20035;-64
2022/06/08 01:17:23;;;;;;;21.83;11.32;;;;;;;;;;5098357;28;20502;-64
2022/06/08 01:19:50;;;;;;;16.33;11.00;;;;;;;;;;5099146;28;20079;-64
2022/06/08 01:22:18;;;;;;;21.30;10.85;;;;;;;;;;5077954;28;20054;-64
2022/06/08 01:24:46;;;;;;;18.58;10.02;;;;;;;;;;5097574;28;20052;-64
2022/06/08 01:27:20;;;;;;;16.73;10.40;;;;;;;;;;5095975;28;20036;-63
2022/06/08 01:29:52;;;;;;;17.55;9.90;;;;;;;;;;5080884;28;20452;-64
2022/06/08 01:32:25;;;;;;;23.35;11.43;;;;;;;;;;5087633;28;20097;-64
2022/06/08 01:35:02;;;;;;;19.27;10.60;;;;;;;;;;5100526;28;20158;-64
2022/06/08 01:37:41;;;;;;;17.70;9.02;;;;;;;;;;5098300;28;20207;-64
2022/06/08 01:40:19;;;;;;;13.65;8.90;;;;;;;;;;5098212;28;20081;-64
2022/06/08 01:42:55;;;;;;;16.38;9.77;;;;;;;;;;5093463;28;20040;-63
2022/06/08 01:45:28;;;;;;;19.25;9.98;;;;;;;;;;5081202;28;20491;-64
2022/06/08 01:48:04;;;;;;;14.68;10.10;;;;;;;;;;5074872;28;20076;-64
2022/06/08 01:50:34;;;;;;;15.88;9.88;;;;;;;;;;5081362;28;20105;-64
2022/06/08 01:53:03;;;;;;;13.80;10.23;;;;;;;;;;5078082;28;20486;-64
2022/06/08 01:55:51;;;;;;;20.13;11.48;;;;;;;;;;5079858;28;20503;-64
2022/06/08 01:58:20;;;;;;;17.23;11.48;;;;;;;;;;5060943;28;21648;-64
2022/06/08 02:00:51;;;;;;;16.23;11.00;;;;;;;;;;5080239;28;20040;-64
2022/06/08 02:03:29;;;;;;;19.50;11.80;;;;;;;;;;5078144;28;20064;-64
2022/06/08 02:05:58;;;;;;;21.83;11.80;;;;;;;;;;5080592;28;20128;-64
2022/06/08 02:08:30;;;;;;;22.35;13.95;;;;;;;;;;5077402;28;20043;-64
2022/06/08 02:11:08;;;;;;;16.77;11.48;;;;;;;;;;5076802;28;20044;-64
2022/06/08 02:13:38;;;;;;;19.17;12.55;;;;;;;;;;5076659;28;20051;-63
2022/06/08 02:16:08;;;;;;;19.60;11.57;;;;;;;;;;5079261;28;20042;-64
2022/06/08 02:18:38;;;;;;;21.40;11.73;;;;;;;;;;5082369;28;20656;-64
2022/06/08 02:21:10;;;;;;;23.98;13.50;;;;;;;;;;5080327;28;20434;-64
2022/06/08 02:23:43;;;;;;;28.90;13.40;;;;;;;;;;5076811;28;20510;-64
2022/06/08 02:26:13;;;;;;;25.30;12.80;;;;;;;;;;5075989;28;20052;-64
2022/06/08 02:28:41;;;;;;;21.02;12.82;;;;;;;;;;5077854;28;20115;-64
2022/06/08 02:31:07;;;;;;;19.08;12.35;;;;;;;;;;5078898;28;20051;-64
2022/06/08 02:36:24;;;;;;;19.10;12.45;;;;;;;;;;5076043;28;20044;-64
2022/06/08 02:38:54;;;;;;;21.98;12.93;;;;;;;;;;5056358;28;20055;-64
2022/06/08 02:41:22;;;;;;;21.98;12.07;;;;;;;;;;5079745;28;20116;-64
2022/06/08 02:43:50;;;;;;;21.20;11.80;;;;;;;;;;5079867;28;20052;-64
2022/06/08 02:46:27;;;;;;;22.88;12.90;;;;;;;;;;5062453;28;20036;-64
2022/06/08 02:48:53;;;;;;;26.35;14.30;;;;;;;;;;5059663;28;20048;-64
2022/06/08 02:51:26;;;;;;;23.90;14.25;;;;;;;;;;5075770;28;20130;-64
2022/06/08 02:53:55;;;;;;;30.95;14.77;;;;;;;;;;5074985;28;20395;-64
2022/06/08 02:56:26;;;;;;;28.70;14.93;;;;;;;;;;5075315;28;20491;-64
2022/06/08 02:58:58;;;;;;;27.42;14.57;;;;;;;;;;5075337;28;20605;-64
2022/06/08 03:01:29;;;;;;;23.15;13.90;;;;;;;;;;5077692;28;20723;-64
2022/06/08 03:03:57;;;;;;;27.70;16.20;;;;;;;;;;5058478;28;20044;-64
2022/06/08 03:06:26;;;;;;;24.90;15.80;;;;;;;;;;5079152;28;20130;-64
2022/06/08 03:08:54;;;;;;;24.92;15.20;;;;;;;;;;5079744;28;20036;-63
2022/06/08 03:11:21;;;;;;;24.42;14.80;;;;;;;;;;5058566;28;20131;-63
2022/06/08 03:13:50;;;;;;;24.60;16.05;;;;;;;;;;5074144;28;20101;-64
2022/06/08 03:16:26;;;;;;;28.83;15.75;;;;;;;;;;5073424;28;20055;-64
2022/06/08 03:18:52;;;;;;;25.77;15.50;;;;;;;;;;5074464;28;20130;-64
2022/06/08 03:21:18;;;;;;;28.27;16.65;;;;;;;;;;5077229;28;20054;-63
2022/06/08 03:23:45;;;;;;;26.38;17.60;;;;;;;;;;5059791;28;20198;-64
2022/06/08 03:26:11;;;;;;;35.25;19.33;;;;;;;;;;5059063;28;20048;-64
2022/06/08 03:28:37;;;;;;;34.70;18.50;;;;;;;;;;5077707;28;21064;-64
2022/06/08 03:31:03;;;;;;;31.30;18.83;;;;;;;;;;5076890;28;20448;-64
2022/06/08 03:33:29;;;;;;;29.42;19.90;;;;;;;;;;5072903;28;20044;-64
2022/06/08 03:35:55;;;;;;;28.48;19.13;;;;;;;;;;5076150;28;20040;-64
2022/06/08 03:38:22;;;;;;;28.88;19.45;;;;;;;;;;5060624;28;20126;-64
2022/06/08 03:40:48;;;;;;;32.28;20.08;;;;;;;;;;5074326;28;20044;-64
2022/06/08 03:43:14;;;;;;;34.10;18.67;;;;;;;;;;5054317;28;20040;-64
2022/06/08 03:45:44;;;;;;;31.27;19.33;;;;;;;;;;5078681;28;20051;-64
2022/06/08 03:48:10;;;;;;;27.75;18.58;;;;;;;;;;5077430;28;20040;-64
2022/06/08 03:50:36;;;;;;;30.60;18.17;;;;;;;;;;5078379;28;20048;-64
2022/06/08 03:53:04;;;;;;;29.42;18.40;;;;;;;;;;5076354;28;20058;-64
2022/06/08 03:55:32;;;;;;;29.60;19.38;;;;;;;;;;5075801;28;20036;-64
2022/06/08 03:57:59;;;;;;;31.20;20.23;;;;;;;;;;5075887;28;20126;-64
2022/06/08 04:00:26;;;;;;;31.88;19.95;;;;;;;;;;5079162;28;20390;-64
2022/06/08 04:02:53;;;;;;;34.50;20.55;;;;;;;;;;5081876;28;20590;-64
2022/06/08 04:05:19;;;;;;;31.35;19.98;;;;;;;;;;5081988;28;20440;-64
2022/06/08 04:07:45;;;;;;;33.50;20.13;;;;;;;;;;5057382;28;20074;-64
2022/06/08 04:10:12;;;;;;;34.63;20.83;;;;;;;;;;5081270;28;20118;-64
2022/06/08 04:12:38;;;;;;;33.40;20.50;;;;;;;;;;5081059;28;20221;-64
2022/06/08 04:15:04;;;;;;;37.33;22.92;;;;;;;;;;5081279;28;20827;-64
2022/06/08 04:17:31;;;;;;;39.67;23.05;;;;;;;;;;5083393;28;20040;-63
2022/06/08 04:19:57;;;;;;;30.95;21.30;;;;;;;;;;5083808;28;20040;-64
2022/06/08 04:22:30;;;;;;;31.48;21.48;;;;;;;;;;5080024;28;20507;-63
2022/06/08 04:24:57;;;;;;;32.28;22.17;;;;;;;;;;5079078;28;20149;-64
2022/06/08 04:27:23;;;;;;;33.70;21.20;;;;;;;;;;5082619;28;20093;-64
2022/06/08 04:29:51;;;;;;;33.78;21.52;;;;;;;;;;5080882;28;20117;-64
2022/06/08 04:32:17;;;;;;;31.65;20.70;;;;;;;;;;5080294;28;20482;-65
2022/06/08 04:34:44;;;;;;;32.28;21.85;;;;;;;;;;5084226;28;20040;-64
2022/06/08 04:37:10;;;;;;;37.47;22.73;;;;;;;;;;5080583;28;20040;-64
2022/06/08 04:39:36;;;;;;;34.72;23.45;;;;;;;;;;5080656;28;20740;-64
2022/06/08 04:42:04;;;;;;;37.42;22.20;;;;;;;;;;5079303;28;20115;-64
2022/06/08 04:44:30;;;;;;;41.08;23.05;;;;;;;;;;5092070;28;20130;-64
2022/06/08 04:46:56;;;;;;;44.85;25.20;;;;;;;;;;5100763;28;20052;-63
2022/06/08 04:49:23;;;;;;;33.80;22.95;;;;;;;;;;5102703;28;20050;-65
2022/06/08 04:51:49;;;;;;;47.20;26.83;;;;;;;;;;5100388;28;20125;-64
2022/06/08 04:54:16;;;;;;;38.28;24.23;;;;;;;;;;5100687;28;20400;-63
2022/06/08 04:56:42;;;;;;;42.40;26.80;;;;;;;;;;5084646;28;20468;-63
2022/06/08 04:59:09;;;;;;;42.80;25.95;;;;;;;;;;5103973;28;20058;-64
2022/06/08 05:01:35;;;;;;;45.15;25.58;;;;;;;;;;5103361;28;20372;-64
2022/06/08 05:04:01;;;;;;;44.63;26.25;;;;;;;;;;5078399;28;20534;-63
2022/06/08 05:06:28;;;;;;;39.17;26.05;;;;;;;;;;5078234;28;20040;-64
2022/06/08 05:08:54;;;;;;;43.03;26.67;;;;;;;;;;5101264;27;22040;-64
2022/06/08 05:11:20;;;;;;;44.53;27.27;;;;;;;;;;5101720;28;20055;-64
2022/06/08 05:13:47;;;;;;;43.70;27.35;;;;;;;;;;5101998;27;20462;-64
2022/06/08 05:16:13;;;;;;;41.17;26.60;;;;;;;;;;5098677;28;20083;-64
2022/06/08 05:18:39;;;;;;;42.30;26.80;;;;;;;;;;5101941;28;20052;-63
2022/06/08 05:21:06;;;;;;;44.25;27.80;;;;;;;;;;5102696;28;20162;-63
2022/06/08 05:23:33;;;;;;;39.83;26.48;;;;;;;;;;5079320;28;20086;-63
2022/06/08 05:26:00;;;;;;;40.42;26.30;;;;;;;;;;5095055;28;20344;-63
2022/06/08 05:28:26;;;;;;;42.40;26.10;;;;;;;;;;5103691;28;20123;-62
2022/06/08 05:30:54;;;;;;;41.25;25.48;;;;;;;;;;5108386;27;20075;-62
2022/06/08 05:33:20;;;;;;;39.50;24.90;;;;;;;;;;5100479;28;20123;-63
2022/06/08 05:35:46;;;;;;;47.47;26.88;;;;;;;;;;5107276;28;20130;-63
2022/06/08 05:38:12;;;;;;;42.55;28.77;;;;;;;;;;5107117;28;20043;-63
2022/06/08 05:40:39;;;;;;;47.10;26.80;;;;;;;;;;5102608;27;20083;-64
2022/06/08 05:43:06;;;;;;;39.17;26.73;;;;;;;;;;5107145;28;20493;-63
2022/06/08 05:45:33;;;;;;;44.40;27.00;;;;;;;;;;5104040;28;20134;-63
2022/06/08 05:47:59;;;;;;;42.08;26.25;;;;;;;;;;5104491;28;20493;-63
2022/06/08 05:50:26;;;;;;;41.53;24.83;;;;;;;;;;5087362;27;20459;-63
2022/06/08 05:52:53;;;;;;;57.83;27.48;;;;;;;;;;5105295;28;20054;-63
2022/06/08 05:55:20;;;;;;;37.28;24.83;;;;;;;;;;5085003;28;20051;-63
2022/06/08 05:57:47;;;;;;;47.53;27.70;;;;;;;;;;5080026;28;20039;-63
2022/06/08 06:00:16;;;;;;;40.10;25.55;;;;;;;;;;5084064;28;20554;-63
2022/06/08 06:02:42;;;;;;;37.20;24.15;;;;;;;;;;5079188;28;20061;-63
2022/06/08 06:05:09;;;;;;;37.85;25.50;;;;;;;;;;5101066;27;20399;-63
2022/06/08 06:07:35;;;;;;;36.75;23.95;;;;;;;;;;5100659;28;20417;-63
2022/06/08 06:10:03;;;;;;;38.38;23.08;;;;;;;;;;5101425;28;20104;-64
2022/06/08 06:12:30;;;;;;;34.95;22.40;;;;;;;;;;5101931;27;20054;-63
2022/06/08 06:14:58;;;;;;;32.80;23.35;;;;;;;;;;5101775;28;20084;-63
2022/06/08 06:17:24;;;;;;;34.70;22.70;;;;;;;;;;5100472;28;20478;-63
2022/06/08 06:19:50;;;;;;;32.25;21.23;;;;;;;;;;5061295;28;20047;-63
2022/06/08 06:22:16;;;;;;;33.30;20.27;;;;;;;;;;5102061;28;20075;-63
2022/06/08 06:24:43;;;;;;;32.03;21.20;;;;;;;;;;5080315;28;20502;-63
2022/06/08 06:27:09;;;;;;;34.08;22.48;;;;;;;;;;5100243;28;20036;-63
2022/06/08 06:29:35;;;;;;;35.50;20.67;;;;;;;;;;5100130;28;20074;-63
2022/06/08 06:32:03;;;;;;;36.78;23.17;;;;;;;;;;5082115;28;20370;-63
2022/06/08 06:34:29;;;;;;;29.77;20.55;;;;;;;;;;5101884;28;20118;-63
2022/06/08 06:36:58;;;;;;;26.83;19.85;;;;;;;;;;5100851;28;20047;-63
2022/06/08 06:39:26;;;;;;;30.58;19.63;;;;;;;;;;5102918;28;20037;-63
2022/06/08 06:41:53;;;;;;;28.15;17.27;;;;;;;;;;5081449;28;20055;-63
2022/06/08 06:44:19;;;;;;;26.25;18.80;;;;;;;;;;5101520;28;20056;-65
2022/06/08 06:46:45;;;;;;;27.40;18.83;;;;;;;;;;5087064;28;20048;-65
2022/06/08 06:49:11;;;;;;;21.55;14.70;;;;;;;;;;5105286;28;20039;-65
2022/06/08 06:51:38;;;;;;;22.30;14.77;;;;;;;;;;5106490;28;20115;-65
2022/06/08 06:54:05;;;;;;;26.02;15.43;;;;;;;;;;5108064;27;20039;-65
2022/06/08 06:56:33;;;;;;;22.25;16.17;;;;;;;;;;5104270;28;20445;-65
2022/06/08 06:59:00;;;;;;;22.30;15.35;;;;;;;;;;5087547;28;20372;-63
2022/06/08 07:01:26;;;;;;;25.10;15.52;;;;;;;;;;5102228;28;20054;-63
2022/06/08 07:03:53;;;;;;;20.63;14.68;;;;;;;;;;5105253;28;20529;-63
2022/06/08 07:06:19;;;;;;;19.95;14.82;;;;;;;;;;5105953;28;20032;-63
2022/06/08 07:08:45;;;;;;;19.63;13.82;;;;;;;;;;5106111;27;20051;-63
2022/06/08 07:13:59;;;;;;;19.10;14.27;;;;;;;;;;5079857;28;20055;-63
2022/06/08 07:16:26;;;;;;;21.83;15.15;;;;;;;;;;5081825;28;20040;-63
2022/06/08 07:18:52;;;;;;;20.98;13.80;;;;;;;;;;5080463;28;20578;-63
2022/06/08 07:21:18;;;;;;;20.83;14.95;;;;;;;;;;5104333;28;20070;-63
2022/06/08 07:23:45;;;;;;;20.95;14.32;;;;;;;;;;5103260;28;20094;-63
2022/06/08 07:26:11;;;;;;;26.10;13.98;;;;;;;;;;5103284;28;20035;-67
2022/06/08 07:28:38;;;;;;;17.55;13.15;;;;;;;;;;5080315;28;20126;-63
2022/06/08 07:31:05;;;;;;;19.38;13.70;;;;;;;;;;5105647;28;20268;-63
2022/06/08 07:33:33;;;;;;;18.23;13.10;;;;;;;;;;5103178;28;20547;-63
2022/06/08 07:35:59;;;;;;;20.10;13.98;;;;;;;;;;5105893;28;20044;-62
2022/06/08 07:38:26;;;;;;;19.67;13.95;;;;;;;;;;5103376;28;20050;-63
2022/06/08 07:40:52;;;;;;;16.35;13.10;;;;;;;;;;5099668;28;20474;-63
2022/06/08 07:43:19;;;;;;;20.02;13.27;;;;;;;;;;5107680;28;20048;-64
2022/06/08 07:45:45;;;;;;;26.85;14.73;;;;;;;;;;5100143;28;21244;-63
2022/06/08 07:50:56;;;;;;;18.45;12.05;;;;;;;;;;5108788;28;20036;-64
2022/06/08 07:53:22;;;;;;;21.27;12.57;;;;;;;;;;5102893;28;20040;-64
2022/06/08 07:55:49;;;;;;;18.63;12.43;;;;;;;;;;5111650;27;20036;-63
2022/06/08 07:58:15;;;;;;;16.00;12.70;;;;;;;;;;5105902;28;20067;-64
2022/06/08 08:00:46;;;;;;;18.13;11.85;;;;;;;;;;5102001;28;20043;-64
2022/06/08 08:03:13;;;;;;;19.05;12.35;;;;;;;;;;5087937;28;20039;-64
2022/06/08 08:05:39;;;;;;;17.40;12.55;;;;;;;;;;5103028;28;20039;-63
2022/06/08 08:08:07;;;;;;;17.98;12.10;;;;;;;;;;5104335;28;20046;-64
2022/06/08 08:10:33;;;;;;;16.25;11.68;;;;;;;;;;5105166;27;21051;-64
2022/06/08 08:12:59;;;;;;;15.93;11.82;;;;;;;;;;5103886;28;20048;-64
2022/06/08 08:15:26;;;;;;;17.35;11.93;;;;;;;;;;5103552;28;20645;-64
2022/06/08 08:17:52;;;;;;;16.63;11.95;;;;;;;;;;5103151;28;20085;-64
2022/06/08 08:20:19;;;;;;;17.25;12.18;;;;;;;;;;5101025;28;20047;-64
2022/06/08 08:22:46;;;;;;;19.58;11.18;;;;;;;;;;5083687;28;20071;-63
2022/06/08 08:25:15;;;;;;;19.83;13.82;;;;;;;;;;5104616;28;20043;-64
2022/06/08 08:27:41;;;;;;;15.35;11.52;;;;;;;;;;5103360;28;20062;-64
2022/06/08 08:30:07;;;;;;;20.70;11.30;;;;;;;;;;5104559;28;20097;-64
2022/06/08 08:32:33;;;;;;;20.65;11.98;;;;;;;;;;5105094;28;20067;-64
2022/06/08 08:35:01;;;;;;;14.07;9.80;;;;;;;;;;5102179;27;20051;-64
2022/06/08 08:37:28;;;;;;;14.35;10.27;;;;;;;;;;5101704;28;20042;-64
2022/06/08 08:39:54;;;;;;;11.55;7.80;;;;;;;;;;5103025;28;20044;-64
2022/06/08 08:42:21;;;;;;;13.30;9.10;;;;;;;;;;5105694;28;20054;-64
2022/06/08 08:44:50;;;;;;;13.25;9.05;;;;;;;;;;5103452;28;20495;-64
2022/06/08 08:47:23;;;;;;;12.85;8.63;;;;;;;;;;5100162;28;20516;-64
2022/06/08 08:49:53;;;;;;;13.15;8.60;;;;;;;;;;5100257;28;20043;-64
2022/06/08 08:52:30;;;;;;;14.18;8.80;;;;;;;;;;5085326;28;20048;-64
2022/06/08 08:54:58;;;;;;;13.85;8.20;;;;;;;;;;5107288;28;20127;-64
2022/06/08 08:57:30;;;;;;;12.10;7.75;;;;;;;;;;5102275;28;20051;-64
2022/06/08 08:59:56;;;;;;;11.98;8.00;;;;;;;;;;5105367;28;20044;-64
2022/06/08 09:05:17;;;;;;;10.38;6.95;;;;;;;;;;5103051;28;20032;-64
2022/06/08 09:07:43;;;;;;;9.48;7.60;;;;;;;;;;5083395;27;20774;-64
2022/06/08 09:10:15;;;;;;;8.95;6.18;;;;;;;;;;5103496;27;20039;-63
2022/06/08 09:12:44;;;;;;;11.68;7.35;;;;;;;;;;5099671;27;20566;-64
2022/06/08 09:15:11;;;;;;;11.68;6.82;;;;;;;;;;5103356;27;20098;-63
2022/06/08 09:17:39;;;;;;;9.38;5.55;;;;;;;;;;5101685;28;20058;-65
2022/06/08 09:20:24;;;;;;;8.40;6.00;;;;;;;;;;5100770;28;20081;-73
2022/06/08 09:22:52;;;;;;;13.38;5.85;;;;;;;;;;5084139;28;20056;-64
2022/06/08 09:25:26;;;;;;;13.48;6.13;;;;;;;;;;5099681;28;20059;-64
2022/06/08 09:27:55;;;;;;;9.88;6.78;;;;;;;;;;5104065;28;20130;-64
2022/06/08 09:30:24;;;;;;;9.63;7.10;;;;;;;;;;5103205;28;20052;-64
2022/06/08 09:32:52;;;;;;;9.90;6.75;;;;;;;;;;5081629;28;20048;-63
2022/06/08 09:35:27;;;;;;;9.02;6.22;;;;;;;;;;5102440;28;20039;-64
2022/06/08 09:37:55;;;;;;;8.07;6.10;;;;;;;;;;5103745;28;20081;-64
2022/06/08 09:40:36;;;;;;;11.68;5.40;;;;;;;;;;5086018;28;20056;-64
2022/06/08 09:43:02;;;;;;;8.25;5.43;;;;;;;;;;5107681;28;20062;-65
2022/06/08 09:45:29;;;;;;;10.00;4.93;;;;;;;;;;5107310;28;20055;-64
2022/06/08 09:51:26;;;;;;;8.55;5.47;;;;;;;;;;5106921;27;20047;-64
2022/06/08 09:54:07;;;;;;;8.35;5.50;;;;;;;;;;5101794;28;20047;-64
2022/06/08 09:56:33;;;;;;;7.93;5.25;;;;;;;;;;5100863;28;20387;-64
2022/06/08 09:59:09;;;;;;;10.15;5.82;;;;;;;;;;5097769;28;20043;-64
2022/06/08 10:01:39;;;;;;;7.68;4.70;;;;;;;;;;5099779;28;21027;-64
2022/06/08 10:04:10;;;;;;;8.60;4.72;;;;;;;;;;5100898;28;20043;-64
2022/06/08 10:06:41;;;;;;;9.15;5.00;;;;;;;;;;5103550;28;20114;-65
2022/06/08 10:09:21;;;;;;;10.25;5.60;;;;;;;;;;5099468;28;20048;-64
2022/06/08 10:12:05;;;;;;;8.02;5.47;;;;;;;;;;5103197;28;20138;-64
2022/06/08 10:14:43;;;;;;;9.30;4.18;;;;;;;;;;5099732;28;20059;-64
2022/06/08 10:17:10;;;;;;;7.70;4.55;;;;;;;;;;5103064;28;20059;-63
2022/06/08 10:19:56;;;;;;;9.77;4.25;;;;;;;;;;5088242;28;20076;-64
2022/06/08 10:22:24;;;;;;;8.82;3.78;;;;;;;;;;5106183;28;20048;-64
2022/06/08 10:24:53;;;;;;;9.10;4.35;;;;;;;;;;5087873;28;20051;-64
2022/06/08 10:27:24;;;;;;;6.90;3.83;;;;;;;;;;5088329;28;20039;-64
2022/06/08 10:30:03;;;;;;;7.43;3.92;;;;;;;;;;5107752;28;20035;-64
2022/06/08 10:32:33;;;;;;;7.57;4.03;;;;;;;;;;5105363;28;20138;-64
2022/06/08 10:35:01;;;;;;;9.30;4.10;;;;;;;;;;5087587;28;20047;-64
2022/06/08 10:37:35;;;;;;;7.78;4.35;;;;;;;;;;5103026;28;20038;-64
2022/06/08 10:40:02;;;;;;;8.30;4.00;;;;;;;;;;5087363;28;20051;-64
2022/06/08 10:42:39;;;;;;;10.85;5.13;;;;;;;;;;5104174;28;20040;-64
2022/06/08 10:45:27;;;;;;;15.88;5.68;;;;;;;;;;5106053;28;20446;-64
2022/06/08 10:47:54;;;;;;;12.93;6.57;;;;;;;;;;5086434;28;20380;-64
2022/06/08 10:50:28;;;;;;;11.30;6.55;;;;;;;;;;5089139;28;20031;-64
2022/06/08 10:54:53;;;;;;;31.92;8.23;;;;;;;;;;5107130;28;20512;-65
2022/06/08 10:55:42;;;;;;;12.45;8.20;;;;;;;;;;5084319;28;20047;-65
2022/06/08 10:58:10;;;;;;;12.23;8.75;;;;;;;;;;5106043;28;20048;-64
2022/06/08 11:00:42;;;;;;;12.30;8.30;;;;;;;;;;5088030;28;20075;-64
2022/06/08 11:03:28;;;;;;;17.73;9.93;;;;;;;;;;5105165;28;20065;-64
2022/06/08 11:05:55;;;;;;;18.85;10.65;;;;;;;;;;5087749;28;20052;-64
2022/06/08 11:08:23;;;;;;;16.95;10.90;;;;;;;;;;5088858;28;20058;-64
2022/06/08 11:10:51;;;;;;;14.02;10.73;;;;;;;;;;5104947;28;20508;-64
2022/06/08 11:13:19;;;;;;;18.48;12.40;;;;;;;;;;5104901;28;20055;-64
2022/06/08 11:15:48;;;;;;;15.35;10.80;;;;;;;;;;5107736;28;20399;-64
2022/06/08 11:18:17;;;;;;;16.13;11.85;;;;;;;;;;5086886;28;20134;-64
2022/06/08 11:20:47;;;;;;;14.75;10.48;;;;;;;;;;5085365;28;20071;-64
2022/06/08 11:23:41;;;;;;;16.25;10.13;;;;;;;;;;5104894;28;20047;-65
2022/06/08 11:26:21;;;;;;;15.50;11.07;;;;;;;;;;5104111;28;20042;-64
2022/06/08 11:28:50;;;;;;;16.35;11.23;;;;;;;;;;5105271;28;20066;-64
2022/06/08 11:31:26;;;;;;;21.50;11.77;;;;;;;;;;5085066;28;20051;-64
2022/06/08 11:34:14;;;;;;;14.27;10.32;;;;;;;;;;5088350;28;20047;-64
2022/06/08 11:36:58;;;;;;;14.18;10.32;;;;;;;;;;5086332;28;20039;-64
2022/06/08 11:39:29;;;;;;;14.20;8.95;;;;;;;;;;5106191;28;20045;-63
2022/06/08 11:41:58;;;;;;;13.52;9.60;;;;;;;;;;5101049;28;20036;-64
2022/06/08 11:44:27;;;;;;;12.63;9.45;;;;;;;;;;5106586;28;20137;-64
2022/06/08 11:47:02;;;;;;;18.33;10.35;;;;;;;;;;5103934;28;20039;-64
2022/06/08 11:49:30;;;;;;;12.68;9.10;;;;;;;;;;5104360;28;20136;-64
2022/06/08 11:51:56;;;;;;;12.25;9.40;;;;;;;;;;5103662;28;20049;-64
2022/06/08 11:54:25;;;;;;;12.88;9.75;;;;;;;;;;5103190;28;20117;-64
2022/06/08 11:56:51;;;;;;;12.68;9.57;;;;;;;;;;5106521;28;20413;-63
2022/06/08 11:59:19;;;;;;;11.38;8.52;;;;;;;;;;5081897;28;20040;-64
2022/06/08 12:01:51;;;;;;;11.57;9.02;;;;;;;;;;5105324;28;20044;-63
2022/06/08 12:04:21;;;;;;;14.48;9.45;;;;;;;;;;5102763;28;20057;-63
2022/06/08 12:06:48;;;;;;;13.68;8.60;;;;;;;;;;5101997;28;20040;-63
2022/06/08 12:09:16;;;;;;;15.30;9.55;;;;;;;;;;5103711;28;20092;-64
2022/06/08 12:11:44;;;;;;;18.92;9.68;;;;;;;;;;5085136;28;20100;-63
2022/06/08 12:14:19;;;;;;;21.00;12.45;;;;;;;;;;5080164;28;20468;-64
2022/06/08 12:16:55;;;;;;;39.83;13.73;;;;;;;;;;5103853;28;20040;-63
2022/06/08 12:19:22;;;;;;;49.83;16.70;;;;;;;;;;5103159;28;20379;-63
2022/06/08 12:21:49;;;;;;;24.65;15.07;;;;;;;;;;5103738;28;20044;-63
2022/06/08 12:24:15;;;;;;;22.17;15.95;;;;;;;;;;5087946;28;20399;-63
2022/06/08 12:26:41;;;;;;;25.08;16.75;;;;;;;;;;5106401;28;20475;-63
2022/06/08 12:29:20;;;;;;;26.23;18.23;;;;;;;;;;5107821;28;20036;-62
2022/06/08 12:31:47;;;;;;;27.15;17.17;;;;;;;;;;5105106;28;20088;-63
2022/06/08 12:34:34;;;;;;;32.00;20.33;;;;;;;;;;5092607;28;20043;-63
2022/06/08 12:37:20;;;;;;;32.33;20.80;;;;;;;;;;5104108;28;20058;-62
2022/06/08 12:39:46;;;;;;;26.77;18.98;;;;;;;;;;5092262;28;20055;-63
2022/06/08 12:42:26;;;;;;;25.73;19.77;;;;;;;;;;5104968;28;20048;-63
2022/06/08 12:44:54;;;;;;;35.63;24.23;;;;;;;;;;5110264;28;20127;-63
2022/06/08 12:47:21;;;;;;;29.45;24.95;;;;;;;;;;5105391;28;20043;-63
2022/06/08 12:49:51;;;;;;;34.80;26.17;;;;;;;;;;5109487;28;20469;-63
2022/06/08 12:52:21;;;;;;;33.38;27.17;;;;;;;;;;5105754;28;20609;-63
2022/06/08 12:54:47;;;;;;;37.92;28.05;;;;;;;;;;5107550;28;20118;-63
2022/06/08 12:57:16;;;;;;;39.20;30.60;;;;;;;;;;5107982;28;20046;-64
2022/06/08 12:59:43;;;;;;;34.08;27.63;;;;;;;;;;5108507;28;20043;-62
2022/06/08 13:02:18;;;;;;;36.95;30.50;;;;;;;;;;5109061;28;20036;-64
2022/06/08 13:04:44;;;;;;;32.83;28.75;;;;;;;;;;5108137;28;20043;-64
2022/06/08 13:07:15;;;;;;;24.85;20.85;;;;;;;;;;5110210;28;20215;-64
2022/06/08 13:09:43;;;;;;;20.02;16.75;;;;;;;;;;5090107;28;20043;-64
2022/06/08 13:12:11;;;;;;;22.17;17.73;;;;;;;;;;5106201;28;20055;-65
2022/06/08 13:14:39;;;;;;;20.58;15.30;;;;;;;;;;5106130;28;20074;-64
2022/06/08 13:17:05;;;;;;;22.02;15.52;;;;;;;;;;5108630;28;20083;-64
2022/06/08 13:19:32;;;;;;;14.68;10.18;;;;;;;;;;5085420;28;20047;-64
2022/06/08 13:21:58;;;;;;;17.63;11.30;;;;;;;;;;5089484;28;20044;-63
2022/06/08 13:24:24;;;;;;;19.08;10.80;;;;;;;;;;5106156;28;20107;-63
2022/06/08 13:26:52;;;;;;;16.45;10.48;;;;;;;;;;5105193;28;20055;-63
2022/06/08 13:29:18;;;;;;;15.55;10.23;;;;;;;;;;5104085;28;20448;-63
2022/06/08 13:31:45;;;;;;;14.55;10.20;;;;;;;;;;5107460;28;20046;-63
2022/06/08 13:34:11;;;;;;;16.48;9.68;;;;;;;;;;5106749;28;20051;-63
2022/06/08 13:36:41;;;;;;;18.33;9.98;;;;;;;;;;5107531;28;20055;-63
2022/06/08 13:39:26;;;;;;;11.93;8.45;;;;;;;;;;5104771;28;20473;-63
2022/06/08 13:41:53;;;;;;;11.35;6.90;;;;;;;;;;5087836;28;20031;-63
2022/06/08 13:44:26;;;;;;;13.02;8.40;;;;;;;;;;5105851;28;20166;-63
2022/06/08 13:46:54;;;;;;;15.63;8.88;;;;;;;;;;5109459;28;20039;-63
2022/06/08 13:49:21;;;;;;;12.55;6.90;;;;;;;;;;5107583;28;20036;-63
2022/06/08 13:51:48;;;;;;;13.40;6.68;;;;;;;;;;5106433;28;20047;-63
2022/06/08 13:54:18;;;;;;;17.63;7.68;;;;;;;;;;5086504;28;20093;-63
2022/06/08 13:56:45;;;;;;;17.25;6.75;;;;;;;;;;5090498;28;20487;-63
2022/06/08 13:59:11;;;;;;;9.52;6.20;;;;;;;;;;5104222;28;20044;-63
2022/06/08 14:01:38;;;;;;;10.18;6.32;;;;;;;;;;5108224;28;20442;-63
2022/06/08 14:04:08;;;;;;;12.85;7.53;;;;;;;;;;5105561;28;20043;-63
2022/06/08 14:14:51;;;;;;;10.30;8.10;;;;;;;;;;5106167;28;20526;-63
2022/06/08 14:17:18;;;;;;;19.05;9.00;;;;;;;;;;5090992;28;20047;-63
2022/06/08 14:19:46;;;;;;;11.80;8.98;;;;;;;;;;5084579;28;20085;-63
2022/06/08 14:22:14;;;;;;;17.02;9.00;;;;;;;;;;5087812;28;20089;-63
2022/06/08 14:24:42;;;;;;;12.90;9.70;;;;;;;;;;5066248;28;20483;-63
2022/06/08 14:27:10;;;;;;;12.23;9.82;;;;;;;;;;5104248;28;20531;-63
2022/06/08 14:29:37;;;;;;;14.57;9.82;;;;;;;;;;5109011;28;20092;-63
2022/06/08 14:32:11;;;;;;;18.63;10.57;;;;;;;;;;5108998;28;20052;-63
2022/06/08 14:34:38;;;;;;;14.23;9.93;;;;;;;;;;5087143;28;20078;-63
2022/06/08 14:37:05;;;;;;;15.52;10.38;;;;;;;;;;5107268;28;20062;-63
2022/06/08 14:39:33;;;;;;;13.27;10.68;;;;;;;;;;5107763;28;20054;-63
2022/06/08 14:42:01;;;;;;;10.68;9.18;;;;;;;;;;5102084;28;20071;-63
2022/06/08 14:44:28;;;;;;;12.88;8.95;;;;;;;;;;5105926;28;20070;-63
2022/06/08 14:46:56;;;;;;;12.32;9.05;;;;;;;;;;5083693;28;20429;-63
2022/06/08 14:49:25;;;;;;;13.48;8.18;;;;;;;;;;5103866;28;20043;-63
2022/06/08 14:51:55;;;;;;;14.35;8.10;;;;;;;;;;5107007;28;20745;-63
2022/06/08 14:54:22;;;;;;;10.57;6.50;;;;;;;;;;5100982;28;20053;-63
2022/06/08 14:56:53;;;;;;;9.45;7.03;;;;;;;;;;5089523;28;20350;-63